createdAt,value
2024-02-19T00:01:30.627Z,88.66
2024-02-19T00:04:00.672Z,88.63
2024-02-19T00:06:28.475Z,88.73
2024-02-19T00:08:56.821Z,88.57
2024-02-19T00:11:24.630Z,88.84
2024-02-19T00:13:53.021Z,88.94
2024-02-19T00:16:21.430Z,88.83
2024-02-19T00:18:50.641Z,88.50
2024-02-19T00:21:19.882Z,89.11
2024-02-19T00:23:48.303Z,88.54
2024-02-19T00:26:16.097Z,88.47
2024-02-19T00:28:44.592Z,88.82
2024-02-19T00:31:13.337Z,89.11
2024-02-19T00:33:42.011Z,88.95
2024-02-19T00:36:10.552Z,88.55
2024-02-19T00:38:39.942Z,88.76
2024-02-19T00:41:07.743Z,88.69
2024-02-19T00:43:36.167Z,88.32
2024-02-19T00:46:04.448Z,88.90
2024-02-19T00:48:32.569Z,88.40
2024-02-19T00:51:00.359Z,87.98
2024-02-19T00:53:28.728Z,87.66
2024-02-19T00:55:57.882Z,88.05
2024-02-19T00:58:26.255Z,87.27
2024-02-19T01:00:56.747Z,88.36
2024-02-19T01:03:25.355Z,88.65
2024-02-19T01:05:53.163Z,89.02
2024-02-19T01:08:21.670Z,88.88
2024-02-19T01:10:50.505Z,88.89
2024-02-19T01:13:20.366Z,89.13
2024-02-19T01:15:48.113Z,88.96
2024-02-19T01:18:20.535Z,88.86
2024-02-19T01:20:48.444Z,88.93
2024-02-19T01:23:18.068Z,88.89
2024-02-19T01:25:45.946Z,88.93
2024-02-19T01:28:14.199Z,89.44
2024-02-19T01:30:43.521Z,88.95
2024-02-19T01:33:11.914Z,89.29
2024-02-19T01:35:40.393Z,89.27
2024-02-19T01:38:09.174Z,89.00
2024-02-19T01:40:36.894Z,89.26
2024-02-19T01:43:07.078Z,89.29
2024-02-19T01:45:35.712Z,88.87
2024-02-19T01:48:05.626Z,88.92
2024-02-19T01:50:34.514Z,88.63
2024-02-19T01:53:04.784Z,88.45
2024-02-19T01:55:34.825Z,88.44
2024-02-19T01:58:03.990Z,88.81
2024-02-19T02:00:39.323Z,88.71
2024-02-19T02:03:12.318Z,88.77
2024-02-19T02:05:40.172Z,88.65
2024-02-19T02:08:08.865Z,88.41
2024-02-19T02:10:36.616Z,88.74
2024-02-19T02:13:05.028Z,88.85
2024-02-19T02:15:32.922Z,88.98
2024-02-19T02:18:01.071Z,88.45
2024-02-19T02:20:32.451Z,88.34
2024-02-19T02:23:01.098Z,88.48
2024-02-19T02:25:28.837Z,88.25
2024-02-19T02:27:58.966Z,88.48
2024-02-19T02:30:26.768Z,88.46
2024-02-19T02:32:57.232Z,88.47
2024-02-19T02:35:25.795Z,88.78
2024-02-19T02:37:53.860Z,88.78
2024-02-19T02:40:21.802Z,88.73
2024-02-19T02:42:50.664Z,89.06
2024-02-19T02:45:19.934Z,88.84
2024-02-19T02:47:48.281Z,88.91
2024-02-19T02:50:16.307Z,88.97
2024-02-19T02:52:44.257Z,89.17
2024-02-19T02:55:13.247Z,89.24
2024-02-19T02:57:41.095Z,89.44
2024-02-19T03:00:11.550Z,89.72
2024-02-19T03:02:40.694Z,89.39
2024-02-19T03:05:09.207Z,89.24
2024-02-19T03:07:37.789Z,89.16
2024-02-19T03:10:06.807Z,88.85
2024-02-19T03:12:35.246Z,88.20
2024-02-19T03:15:03.053Z,88.21
2024-02-19T03:17:31.202Z,88.33
2024-02-19T03:20:00.335Z,88.26
2024-02-19T03:22:28.723Z,87.95
2024-02-19T03:24:56.518Z,88.12
2024-02-19T03:27:24.903Z,87.85
2024-02-19T03:29:52.936Z,87.68
2024-02-19T03:32:20.729Z,87.25
2024-02-19T03:34:49.216Z,86.81
2024-02-19T03:37:18.909Z,86.54
2024-02-19T03:39:47.346Z,86.54
2024-02-19T03:42:15.065Z,86.36
2024-02-19T03:44:43.174Z,86.75
2024-02-19T03:47:11.346Z,86.71
2024-02-19T03:49:39.986Z,86.40
2024-02-19T03:52:08.189Z,86.74
2024-02-19T03:54:38.015Z,86.57
2024-02-19T03:57:06.817Z,86.65
2024-02-19T03:59:34.607Z,86.78
2024-02-19T04:02:02.575Z,86.87
2024-02-19T04:04:30.940Z,87.07
2024-02-19T04:06:59.254Z,86.81
2024-02-19T04:09:27.062Z,86.97
2024-02-19T04:11:56.855Z,87.18
2024-02-19T04:14:25.980Z,86.66
2024-02-19T04:16:54.370Z,86.90
2024-02-19T04:19:24.640Z,86.83
2024-02-19T04:21:53.141Z,87.20
2024-02-19T04:24:21.514Z,87.82
2024-02-19T04:26:49.839Z,87.50
2024-02-19T04:29:18.923Z,87.54
2024-02-19T04:31:47.280Z,87.49
2024-02-19T04:34:15.267Z,87.46
2024-02-19T04:36:43.556Z,87.58
2024-02-19T04:39:13.236Z,87.33
2024-02-19T04:41:40.975Z,87.42
2024-02-19T04:44:09.334Z,87.72
2024-02-19T04:46:40.037Z,87.30
2024-02-19T04:49:07.883Z,87.43
2024-02-19T04:51:36.346Z,87.80
2024-02-19T04:54:05.361Z,88.32
2024-02-19T04:56:33.483Z,88.26
2024-02-19T04:59:02.063Z,88.66
2024-02-19T05:01:31.940Z,88.54
2024-02-19T05:04:01.568Z,88.59
2024-02-19T05:06:30.356Z,88.57
2024-02-19T05:08:58.465Z,88.33
2024-02-19T05:11:26.336Z,88.30
2024-02-19T05:13:54.422Z,88.37
2024-02-19T05:16:22.234Z,88.72
2024-02-19T05:18:51.209Z,88.73
2024-02-19T05:21:20.327Z,88.77
2024-02-19T05:23:48.657Z,88.48
2024-02-19T05:26:25.570Z,88.95
2024-02-19T05:28:54.047Z,88.52
2024-02-19T05:31:39.726Z,88.41
2024-02-19T05:34:09.783Z,88.36
2024-02-19T05:36:39.122Z,88.51
2024-02-19T05:39:12.269Z,88.64
2024-02-19T05:41:40.456Z,88.63
2024-02-19T05:44:09.524Z,88.77
2024-02-19T05:46:37.553Z,89.18
2024-02-19T05:49:05.820Z,89.43
2024-02-19T05:51:33.654Z,89.06
2024-02-19T05:54:03.417Z,89.09
2024-02-19T05:56:31.199Z,89.04
2024-02-19T05:58:59.580Z,89.12
2024-02-19T06:01:27.483Z,89.40
2024-02-19T06:03:55.945Z,89.05
2024-02-19T06:06:23.740Z,88.58
2024-02-19T06:08:52.102Z,88.80
2024-02-19T06:11:22.790Z,89.07
2024-02-19T06:13:51.620Z,88.96
2024-02-19T06:16:19.468Z,89.00
2024-02-19T06:18:48.259Z,88.92
2024-02-19T06:21:16.093Z,88.81
2024-02-19T06:23:44.402Z,89.26
2024-02-19T06:26:13.788Z,88.90
2024-02-19T06:28:43.513Z,89.05
2024-02-19T06:31:11.308Z,88.96
2024-02-19T06:33:40.428Z,88.85
2024-02-19T06:36:08.669Z,88.96
2024-02-19T06:38:36.707Z,88.98
2024-02-19T06:41:04.756Z,88.46
2024-02-19T06:43:33.230Z,88.69
2024-02-19T06:46:02.392Z,88.64
2024-02-19T06:48:30.913Z,88.92
2024-02-19T06:50:59.322Z,89.04
2024-02-19T06:53:27.097Z,89.02
2024-02-19T06:55:55.216Z,89.52
2024-02-19T06:58:23.844Z,89.82
2024-02-19T07:00:52.371Z,89.70
2024-02-19T07:03:21.857Z,89.83
2024-02-19T07:05:49.757Z,89.31
2024-02-19T07:08:17.531Z,89.28
2024-02-19T07:10:45.946Z,89.18
2024-02-19T07:13:13.961Z,89.04
2024-02-19T07:15:42.416Z,88.84
2024-02-19T07:18:11.982Z,88.72
2024-02-19T07:20:42.923Z,88.93
2024-02-19T07:23:10.684Z,88.39
2024-02-19T07:25:38.589Z,88.17
2024-02-19T07:28:06.653Z,88.71
2024-02-19T07:30:37.045Z,88.05
2024-02-19T07:33:05.320Z,88.49
2024-02-19T07:35:33.443Z,88.05
2024-02-19T07:38:02.526Z,88.76
2024-02-19T07:40:34.173Z,88.77
2024-02-19T07:43:03.696Z,88.34
2024-02-19T07:45:32.137Z,88.68
2024-02-19T07:48:01.424Z,88.48
2024-02-19T07:50:30.073Z,88.52
2024-02-19T07:52:57.839Z,88.62
2024-02-19T07:55:27.742Z,88.22
2024-02-19T07:57:55.911Z,88.35
2024-02-19T08:00:23.971Z,88.00
2024-02-19T08:02:51.848Z,87.57
2024-02-19T08:05:20.198Z,87.68
2024-02-19T08:07:48.235Z,87.16
2024-02-19T08:10:16.907Z,87.20
2024-02-19T08:12:46.937Z,87.23
2024-02-19T08:15:15.102Z,87.35
2024-02-19T08:17:42.984Z,87.41
2024-02-19T08:20:11.757Z,86.79
2024-02-19T08:22:39.494Z,86.25
2024-02-19T08:25:08.667Z,85.89
2024-02-19T08:27:36.400Z,85.27
2024-02-19T08:30:07.162Z,84.39
2024-02-19T08:32:34.977Z,84.33
2024-02-19T08:35:03.186Z,83.97
2024-02-19T08:37:31.097Z,83.47
2024-02-19T08:39:59.356Z,83.44
2024-02-19T08:42:27.199Z,83.68
2024-02-19T08:44:55.010Z,83.91
2024-02-19T08:47:24.338Z,84.31
2024-02-19T08:49:52.316Z,84.91
2024-02-19T08:52:20.138Z,84.95
2024-02-19T08:54:48.797Z,84.82
2024-02-19T08:57:17.470Z,84.63
2024-02-19T08:59:47.072Z,84.57
2024-02-19T09:02:15.546Z,84.50
2024-02-19T09:04:45.350Z,84.15
2024-02-19T09:07:14.735Z,83.96
2024-02-19T09:09:45.463Z,83.92
2024-02-19T09:12:13.956Z,84.00
2024-02-19T09:14:41.809Z,83.72
2024-02-19T09:17:09.637Z,83.74
2024-02-19T09:19:37.538Z,84.08
2024-02-19T09:22:08.691Z,81.89
2024-02-19T09:24:36.782Z,80.85
2024-02-19T09:27:04.911Z,79.71
2024-02-19T09:29:35.814Z,80.49
2024-02-19T09:32:04.117Z,80.13
2024-02-19T09:34:32.350Z,80.50
2024-02-19T09:37:01.631Z,78.50
2024-02-19T09:39:31.014Z,78.00
2024-02-19T09:41:58.894Z,77.03
2024-02-19T09:44:27.676Z,76.89
2024-02-19T09:47:02.626Z,76.11
2024-02-19T09:49:32.193Z,75.81
2024-02-19T09:52:03.232Z,75.08
2024-02-19T09:54:32.983Z,71.87
2024-02-19T09:57:02.028Z,67.68
2024-02-19T09:59:30.523Z,58.87
2024-02-19T10:01:58.346Z,54.04
2024-02-19T10:04:28.626Z,54.02
2024-02-19T10:07:01.949Z,56.79
2024-02-19T10:09:29.883Z,58.74
2024-02-19T10:11:59.433Z,58.90
2024-02-19T10:14:27.382Z,57.21
2024-02-19T10:16:56.096Z,55.96
2024-02-19T10:19:24.247Z,53.66
2024-02-19T10:21:52.093Z,51.99
2024-02-19T10:24:20.692Z,49.79
2024-02-19T10:26:49.249Z,50.04
2024-02-19T10:29:20.282Z,50.34
2024-02-19T10:31:48.208Z,52.24
2024-02-19T10:34:18.123Z,54.96
2024-02-19T10:36:46.580Z,58.91
2024-02-19T10:39:15.096Z,60.30
2024-02-19T10:41:44.124Z,62.25
2024-02-19T10:44:11.925Z,63.29
2024-02-19T10:46:41.499Z,62.55
2024-02-19T10:49:09.702Z,63.49
2024-02-19T10:51:40.548Z,64.64
2024-02-19T10:54:08.543Z,62.71
2024-02-19T10:56:38.151Z,61.40
2024-02-19T10:59:08.775Z,61.01
2024-02-19T11:01:46.079Z,59.65
2024-02-19T11:04:19.816Z,58.31
2024-02-19T11:06:48.578Z,61.03
2024-02-19T11:09:27.964Z,58.26
2024-02-19T11:11:59.406Z,57.42
2024-02-19T11:14:29.963Z,56.31
2024-02-19T11:16:59.328Z,57.56
2024-02-19T11:19:28.201Z,60.50
2024-02-19T11:22:07.192Z,62.67
2024-02-19T11:24:35.277Z,66.34
2024-02-19T11:27:06.230Z,68.53
2024-02-19T11:29:43.612Z,69.03
2024-02-19T11:32:21.024Z,68.47
2024-02-19T11:34:51.885Z,68.14
2024-02-19T11:37:20.889Z,68.16
2024-02-19T11:39:49.370Z,68.80
2024-02-19T11:42:18.063Z,68.55
2024-02-19T11:44:47.589Z,69.12
2024-02-19T11:47:17.467Z,69.49
2024-02-19T11:49:47.516Z,70.50
2024-02-19T11:52:16.545Z,71.76
2024-02-19T11:54:45.701Z,72.67
2024-02-19T11:57:15.200Z,73.23
2024-02-19T11:59:45.930Z,74.39
2024-02-19T12:02:13.896Z,75.79
2024-02-19T12:04:44.120Z,76.23
2024-02-19T12:07:12.624Z,76.17
2024-02-19T12:09:40.598Z,73.86
2024-02-19T12:12:08.402Z,68.31
2024-02-19T12:14:38.007Z,68.01
2024-02-19T12:17:07.029Z,68.32
2024-02-19T12:19:35.480Z,67.42
2024-02-19T12:22:05.498Z,66.73
2024-02-19T12:24:34.044Z,65.71
2024-02-19T12:27:02.558Z,64.83
2024-02-19T12:29:30.354Z,64.64
2024-02-19T12:31:58.718Z,65.20
2024-02-19T12:34:26.611Z,66.59
2024-02-19T12:36:54.959Z,67.96
2024-02-19T12:39:26.809Z,67.98
2024-02-19T12:41:54.717Z,65.35
2024-02-19T12:44:22.493Z,66.46
2024-02-19T12:46:51.065Z,68.41
2024-02-19T12:49:19.749Z,69.29
2024-02-19T12:51:49.905Z,72.12
2024-02-19T12:54:19.560Z,73.56
2024-02-19T12:56:49.386Z,73.47
2024-02-19T12:59:17.524Z,74.02
2024-02-19T13:01:45.607Z,73.85
2024-02-19T13:04:13.617Z,73.87
2024-02-19T13:06:41.815Z,73.28
2024-02-19T13:09:12.120Z,73.00
2024-02-19T13:11:40.279Z,70.61
2024-02-19T13:14:10.482Z,68.53
2024-02-19T13:16:40.039Z,67.91
2024-02-19T13:19:08.195Z,68.40
2024-02-19T13:21:36.710Z,68.39
2024-02-19T13:24:04.557Z,68.53
2024-02-19T13:26:33.397Z,68.12
2024-02-19T13:29:03.283Z,67.27
2024-02-19T13:31:33.210Z,67.24
2024-02-19T13:34:01.256Z,68.67
2024-02-19T13:36:29.108Z,69.33
2024-02-19T13:38:57.227Z,68.73
2024-02-19T13:41:25.709Z,68.27
2024-02-19T13:43:54.125Z,68.12
2024-02-19T13:46:22.296Z,69.25
2024-02-19T13:49:02.025Z,68.79
2024-02-19T13:51:30.093Z,69.19
2024-02-19T13:53:57.963Z,69.54
2024-02-19T13:56:26.945Z,70.37
2024-02-19T13:58:54.769Z,71.37
2024-02-19T14:01:22.702Z,71.27
2024-02-19T14:03:52.770Z,71.78
2024-02-19T14:06:20.983Z,71.58
2024-02-19T14:08:48.783Z,72.84
2024-02-19T14:11:16.593Z,72.41
2024-02-19T14:13:51.058Z,72.78
2024-02-19T14:16:23.182Z,73.27
2024-02-19T14:18:52.466Z,74.10
2024-02-19T14:21:20.333Z,74.42
2024-02-19T14:23:48.088Z,74.64
2024-02-19T14:26:16.220Z,75.32
2024-02-19T14:28:44.420Z,76.35
2024-02-19T14:31:12.376Z,76.39
2024-02-19T14:33:40.708Z,76.72
2024-02-19T14:36:10.278Z,76.17
2024-02-19T14:38:39.355Z,74.67
2024-02-19T14:41:07.317Z,74.51
2024-02-19T14:43:35.283Z,74.25
2024-02-19T14:46:05.879Z,74.45
2024-02-19T14:48:36.859Z,75.33
2024-02-19T14:51:06.797Z,75.37
2024-02-19T14:53:36.050Z,75.68
2024-02-19T14:56:04.184Z,76.15
2024-02-19T14:58:34.382Z,75.82
2024-02-19T15:01:02.640Z,75.76
2024-02-19T15:03:30.704Z,75.26
2024-02-19T15:05:58.743Z,75.77
2024-02-19T15:08:27.102Z,74.97
2024-02-19T15:10:58.697Z,74.83
2024-02-19T15:13:26.614Z,74.58
2024-02-19T15:15:54.443Z,74.11
2024-02-19T15:18:23.970Z,73.80
2024-02-19T15:20:53.539Z,74.66
2024-02-19T15:23:22.204Z,74.39
2024-02-19T15:25:50.148Z,74.55
2024-02-19T15:28:19.692Z,74.02
2024-02-19T15:30:50.982Z,74.33
2024-02-19T15:33:19.127Z,74.15
2024-02-19T15:35:46.879Z,74.26
2024-02-19T15:38:14.922Z,74.41
2024-02-19T15:40:44.939Z,74.22
2024-02-19T15:43:13.242Z,74.67
2024-02-19T15:45:44.734Z,74.38
2024-02-19T15:48:14.942Z,74.78
2024-02-19T15:50:42.852Z,74.95
2024-02-19T15:53:24.473Z,75.58
2024-02-19T15:56:00.562Z,75.57
2024-02-19T15:58:30.349Z,75.49
2024-02-19T16:00:59.678Z,75.39
2024-02-19T16:03:29.419Z,75.24
2024-02-19T16:06:00.923Z,75.25
2024-02-19T16:08:39.951Z,75.08
2024-02-19T16:11:09.305Z,74.89
2024-02-19T16:13:39.103Z,75.02
2024-02-19T16:16:11.448Z,74.98
2024-02-19T16:18:40.670Z,75.07
2024-02-19T16:21:08.568Z,74.78
2024-02-19T16:23:37.976Z,75.39
2024-02-19T16:26:06.842Z,74.40
2024-02-19T16:28:34.989Z,74.42
2024-02-19T16:31:04.251Z,74.16
2024-02-19T16:33:33.686Z,74.70
2024-02-19T16:36:05.816Z,75.13
2024-02-19T16:38:38.232Z,75.21
2024-02-19T16:41:06.963Z,74.84
2024-02-19T16:43:36.183Z,75.11
2024-02-19T16:46:05.271Z,75.30
2024-02-19T16:48:39.768Z,75.46
2024-02-19T16:51:08.182Z,75.25
2024-02-19T16:53:37.182Z,75.50
2024-02-19T16:56:05.550Z,76.34
2024-02-19T16:58:36.228Z,76.65
2024-02-19T17:01:06.181Z,76.98
2024-02-19T17:03:35.669Z,77.39
2024-02-19T17:06:04.534Z,77.38
2024-02-19T17:08:31.848Z,77.91
2024-02-19T17:10:59.856Z,78.29
2024-02-19T17:13:27.869Z,78.58
2024-02-19T17:15:56.131Z,79.42
2024-02-19T17:18:24.039Z,79.08
2024-02-19T17:20:53.316Z,79.30
2024-02-19T17:23:21.541Z,79.44
2024-02-19T17:25:49.322Z,79.12
2024-02-19T17:28:19.825Z,79.28
2024-02-19T17:30:48.063Z,79.08
2024-02-19T17:33:16.367Z,79.85
2024-02-19T17:35:45.887Z,79.57
2024-02-19T17:38:15.995Z,79.57
2024-02-19T17:40:45.250Z,80.29
2024-02-19T17:43:13.827Z,79.85
2024-02-19T17:45:42.395Z,80.29
2024-02-19T17:48:14.189Z,80.29
2024-02-19T17:50:43.464Z,80.13
2024-02-19T17:53:11.557Z,80.12
2024-02-19T17:55:41.971Z,80.65
2024-02-19T17:58:10.401Z,81.30
2024-02-19T18:00:41.942Z,81.11
2024-02-19T18:03:10.118Z,81.80
2024-02-19T18:05:38.050Z,81.89
2024-02-19T18:08:06.586Z,82.03
2024-02-19T18:10:34.548Z,82.61
2024-02-19T18:13:04.532Z,83.34
2024-02-19T18:15:32.442Z,84.01
2024-02-19T18:18:04.544Z,84.17
2024-02-19T18:20:33.818Z,84.55
2024-02-19T18:23:04.302Z,84.83
2024-02-19T18:25:32.253Z,84.40
2024-02-19T18:28:00.342Z,84.59
2024-02-19T18:30:29.497Z,84.58
2024-02-19T18:32:59.268Z,84.27
2024-02-19T18:35:27.294Z,84.63
2024-02-19T18:37:55.444Z,84.45
2024-02-19T18:40:23.670Z,84.16
2024-02-19T18:42:53.301Z,83.67
2024-02-19T18:45:21.148Z,84.10
2024-02-19T18:47:50.500Z,83.47
2024-02-19T18:50:19.202Z,83.34
2024-02-19T18:52:47.536Z,83.32
2024-02-19T18:55:15.920Z,83.16
2024-02-19T18:57:43.696Z,82.68
2024-02-19T19:00:11.965Z,82.60
2024-02-19T19:02:42.481Z,83.00
2024-02-19T19:05:14.149Z,83.10
2024-02-19T19:07:43.043Z,82.61
2024-02-19T19:10:11.377Z,83.36
2024-02-19T19:12:39.471Z,82.77
2024-02-19T19:15:08.847Z,83.01
2024-02-19T19:17:37.174Z,82.92
2024-02-19T19:20:10.166Z,83.26
2024-02-19T19:22:40.065Z,82.71
2024-02-19T19:25:08.704Z,82.85
2024-02-19T19:27:37.132Z,82.34
2024-02-19T19:30:05.784Z,82.55
2024-02-19T19:32:36.367Z,82.48
2024-02-19T19:35:04.797Z,81.95
2024-02-19T19:37:32.680Z,82.12
2024-02-19T19:40:06.781Z,81.57
2024-02-19T19:42:35.239Z,81.97
2024-02-19T19:45:03.019Z,81.65
2024-02-19T19:47:34.592Z,81.69
2024-02-19T19:50:02.987Z,81.53
2024-02-19T19:52:35.268Z,81.47
2024-02-19T19:55:05.403Z,82.21
2024-02-19T19:57:33.903Z,81.89
2024-02-19T20:00:01.710Z,81.53
2024-02-19T20:02:36.948Z,82.15
2024-02-19T20:05:05.367Z,82.25
2024-02-19T20:07:33.258Z,82.13
2024-02-19T20:10:04.312Z,82.23
2024-02-19T20:12:34.993Z,81.86
2024-02-19T20:15:03.541Z,82.43
2024-02-19T20:17:33.431Z,82.35
2024-02-19T20:20:02.412Z,82.54
2024-02-19T20:22:31.437Z,82.11
2024-02-19T20:24:59.364Z,82.29
2024-02-19T20:27:27.611Z,82.28
2024-02-19T20:29:56.858Z,82.22
2024-02-19T20:32:25.057Z,82.47
2024-02-19T20:34:53.390Z,82.35
2024-02-19T20:37:24.386Z,82.28
2024-02-19T20:39:52.526Z,81.91
2024-02-19T20:42:20.542Z,82.14
2024-02-19T20:44:48.375Z,82.08
2024-02-19T20:47:18.990Z,81.55
2024-02-19T20:49:47.929Z,81.96
2024-02-19T20:52:22.167Z,81.89
2024-02-19T20:54:55.277Z,81.62
2024-02-19T20:57:26.206Z,81.65
2024-02-19T20:59:54.163Z,82.38
2024-02-19T21:02:27.219Z,82.54
2024-02-19T21:04:55.062Z,82.46
2024-02-19T21:07:24.635Z,82.42
2024-02-19T21:09:52.557Z,81.94
2024-02-19T21:12:22.070Z,82.06
2024-02-19T21:14:50.228Z,82.11
2024-02-19T21:17:18.103Z,81.38
2024-02-19T21:19:47.639Z,81.96
2024-02-19T21:22:15.611Z,82.22
2024-02-19T21:24:44.800Z,81.94
2024-02-19T21:27:12.662Z,81.75
2024-02-19T21:29:41.340Z,82.91
2024-02-19T21:32:09.078Z,82.93
2024-02-19T21:34:38.554Z,83.81
2024-02-19T21:37:08.045Z,83.93
2024-02-19T21:39:36.182Z,85.10
2024-02-19T21:42:04.684Z,85.79
2024-02-19T21:44:33.257Z,85.99
2024-02-19T21:47:01.268Z,86.74
2024-02-19T21:49:29.963Z,86.34
2024-02-19T21:51:57.871Z,86.59
2024-02-19T21:54:27.359Z,86.12
2024-02-19T21:56:55.136Z,86.30
2024-02-19T21:59:23.184Z,86.48
2024-02-19T22:01:51.343Z,86.31
2024-02-19T22:04:19.717Z,86.46
2024-02-19T22:06:47.884Z,86.71
2024-02-19T22:09:16.046Z,86.03
2024-02-19T22:11:46.585Z,86.51
2024-02-19T22:14:15.520Z,86.20
2024-02-19T22:16:43.823Z,86.00
2024-02-19T22:19:12.075Z,86.48
2024-02-19T22:21:39.980Z,86.24
2024-02-19T22:24:08.081Z,86.62
2024-02-19T22:26:35.871Z,86.33
2024-02-19T22:29:05.051Z,86.57
2024-02-19T22:31:33.668Z,86.31
2024-02-19T22:34:01.566Z,86.29
2024-02-19T22:36:29.399Z,85.81
2024-02-19T22:38:57.133Z,85.68
2024-02-19T22:41:25.487Z,86.02
2024-02-19T22:43:53.214Z,86.13
2024-02-19T22:46:23.095Z,86.19
2024-02-19T22:48:50.889Z,85.30
2024-02-19T22:51:19.418Z,85.36
2024-02-19T22:53:47.152Z,85.45
2024-02-19T22:56:14.879Z,85.12
2024-02-19T22:58:42.703Z,85.18
2024-02-19T23:01:11.223Z,84.02
2024-02-19T23:03:40.456Z,84.36
2024-02-19T23:06:08.973Z,84.18
2024-02-19T23:08:36.735Z,84.57
2024-02-19T23:11:04.566Z,83.43
2024-02-19T23:13:32.453Z,83.86
2024-02-19T23:16:00.888Z,83.46
2024-02-19T23:18:28.692Z,83.60
2024-02-19T23:20:57.829Z,83.81
2024-02-19T23:23:25.659Z,83.78
2024-02-19T23:25:54.513Z,83.71
2024-02-19T23:28:23.000Z,83.72
2024-02-19T23:30:53.058Z,83.40
2024-02-19T23:33:20.995Z,83.30
2024-02-19T23:35:49.271Z,82.89
2024-02-19T23:38:20.402Z,82.95
2024-02-19T23:40:48.785Z,82.88
2024-02-19T23:43:16.742Z,83.24
2024-02-19T23:45:45.191Z,83.17
2024-02-19T23:48:13.039Z,83.23
2024-02-19T23:50:41.786Z,82.80
2024-02-19T23:53:09.640Z,83.30
2024-02-19T23:55:39.505Z,82.84
2024-02-19T23:58:07.297Z,82.67
